createdAt,value
2019-01-25T00:01:53.285Z,-2.30
2019-01-25T00:04:23.595Z,-2.30
2019-01-25T00:06:53.937Z,-2.30
2019-01-25T00:09:24.474Z,-2.30
2019-01-25T00:11:54.953Z,-2.40
2019-01-25T00:14:25.094Z,-2.40
2019-01-25T00:16:55.966Z,-2.40
2019-01-25T00:19:26.642Z,-2.30
2019-01-25T00:21:57.060Z,-2.30
2019-01-25T00:24:27.439Z,-2.20
2019-01-25T00:26:58.558Z,-2.30
2019-01-25T00:29:28.692Z,-2.30
2019-01-25T00:31:59.059Z,-2.40
2019-01-25T00:34:29.920Z,-2.40
2019-01-25T00:37:00.369Z,-2.40
2019-01-25T00:39:30.455Z,-2.30
2019-01-25T00:42:00.740Z,-2.30
2019-01-25T00:44:31.439Z,-2.20
2019-01-25T00:47:01.771Z,-2.30
2019-01-25T00:49:32.455Z,-2.30
2019-01-25T00:52:02.710Z,-2.40
2019-01-25T00:54:33.042Z,-2.40
2019-01-25T00:57:03.374Z,-2.30
2019-01-25T00:59:33.812Z,-2.20
2019-01-25T01:02:04.335Z,-2.20
2019-01-25T01:04:34.684Z,-2.40
2019-01-25T01:07:05.076Z,-2.40
2019-01-25T01:09:35.391Z,-2.40
2019-01-25T01:12:05.834Z,-2.40
2019-01-25T01:14:36.832Z,-2.40
2019-01-25T01:17:07.881Z,-2.40
2019-01-25T01:19:38.015Z,-2.40
2019-01-25T01:22:08.759Z,-2.30
2019-01-25T01:24:40.356Z,-2.40
2019-01-25T01:27:11.109Z,-2.40
2019-01-25T01:29:41.658Z,-2.40
2019-01-25T01:32:11.907Z,-2.40
2019-01-25T01:34:42.293Z,-2.50
2019-01-25T01:37:12.583Z,-2.50
2019-01-25T01:39:42.808Z,-2.50
2019-01-25T01:42:13.319Z,-2.40
2019-01-25T01:44:43.743Z,-2.40
2019-01-25T01:47:14.266Z,-2.50
2019-01-25T01:49:46.123Z,-2.40
2019-01-25T01:52:16.829Z,-2.40
2019-01-25T01:54:48.156Z,-2.40
2019-01-25T01:57:20.126Z,-2.40
2019-01-25T01:59:50.823Z,-2.40
2019-01-25T02:02:21.225Z,-2.40
2019-01-25T02:04:51.965Z,-2.40
2019-01-25T02:07:22.578Z,-2.40
2019-01-25T02:09:52.990Z,-2.40
2019-01-25T02:12:23.460Z,-2.40
2019-01-25T02:14:53.717Z,-2.40
2019-01-25T02:17:24.309Z,-2.40
2019-01-25T02:19:54.775Z,-2.40
2019-01-25T02:22:25.178Z,-2.40
2019-01-25T02:24:56.201Z,-2.40
2019-01-25T02:27:26.711Z,-2.40
2019-01-25T02:29:57.494Z,-2.50
2019-01-25T02:32:28.065Z,-2.40
2019-01-25T02:34:58.644Z,-2.40
2019-01-25T02:37:28.941Z,-2.40
2019-01-25T02:39:59.822Z,-2.50
2019-01-25T02:42:30.482Z,-2.40
2019-01-25T02:45:01.157Z,-2.50
2019-01-25T02:47:31.962Z,-2.50
2019-01-25T02:50:02.428Z,-2.50
2019-01-25T02:52:32.703Z,-2.40
2019-01-25T02:55:03.025Z,-2.50
2019-01-25T02:57:33.180Z,-2.60
2019-01-25T03:00:05.096Z,-2.60
2019-01-25T03:02:35.302Z,-2.60
2019-01-25T03:05:07.736Z,-2.50
2019-01-25T03:07:37.987Z,-2.50
2019-01-25T03:10:11.482Z,-2.50
2019-01-25T03:12:41.907Z,-2.50
2019-01-25T03:15:15.245Z,-2.50
2019-01-25T03:17:45.988Z,-2.40
2019-01-25T03:20:17.232Z,-2.40
2019-01-25T03:22:47.697Z,-2.40
2019-01-25T03:25:26.301Z,-2.40
2019-01-25T03:27:57.086Z,-2.50
2019-01-25T03:30:28.319Z,-2.50
2019-01-25T03:32:59.305Z,-2.60
2019-01-25T03:35:29.292Z,-2.60
2019-01-25T03:38:00.244Z,-2.60
2019-01-25T03:40:30.614Z,-2.60
2019-01-25T03:43:00.936Z,-2.60
2019-01-25T03:45:31.365Z,-2.60
2019-01-25T03:48:01.501Z,-2.60
2019-01-25T03:50:31.939Z,-2.60
2019-01-25T03:53:02.664Z,-2.60
2019-01-25T03:55:33.690Z,-2.60
2019-01-25T03:58:04.808Z,-2.60
2019-01-25T04:00:34.915Z,-2.60
2019-01-25T04:03:05.481Z,-2.60
2019-01-25T04:05:35.930Z,-2.60
2019-01-25T04:08:06.263Z,-2.60
2019-01-25T04:10:36.655Z,-2.60
2019-01-25T04:13:08.202Z,-2.60
2019-01-25T04:15:38.902Z,-2.60
2019-01-25T04:18:09.380Z,-2.60
2019-01-25T04:20:39.557Z,-2.60
2019-01-25T04:23:09.929Z,-2.60
2019-01-25T04:25:40.246Z,-2.60
2019-01-25T04:28:10.692Z,-2.60
2019-01-25T04:30:40.988Z,-2.50
2019-01-25T04:33:11.278Z,-2.60
2019-01-25T04:35:41.613Z,-2.50
2019-01-25T04:38:12.553Z,-2.50
2019-01-25T04:40:42.827Z,-2.50
2019-01-25T04:43:13.434Z,-2.50
2019-01-25T04:45:44.095Z,-2.50
2019-01-25T04:48:14.705Z,-2.50
2019-01-25T04:50:45.134Z,-2.60
2019-01-25T04:53:15.612Z,-2.60
2019-01-25T04:55:46.018Z,-2.60
2019-01-25T04:58:16.520Z,-2.60
2019-01-25T05:00:47.060Z,-2.60
2019-01-25T05:03:17.529Z,-2.60
2019-01-25T05:05:47.792Z,-2.60
2019-01-25T05:08:18.954Z,-2.60
2019-01-25T05:10:49.643Z,-2.60
2019-01-25T05:13:19.768Z,-2.60
2019-01-25T05:15:49.885Z,-2.50
2019-01-25T05:18:21.209Z,-2.50
2019-01-25T05:20:51.880Z,-2.50
2019-01-25T05:23:22.087Z,-2.50
2019-01-25T05:25:52.419Z,-2.50
2019-01-25T05:28:22.837Z,-2.50
2019-01-25T05:30:58.388Z,-2.50
2019-01-25T05:33:28.610Z,-2.50
2019-01-25T05:35:59.032Z,-2.50
2019-01-25T05:38:29.484Z,-2.50
2019-01-25T05:40:59.595Z,-2.50
2019-01-25T05:43:34.622Z,-2.60
2019-01-25T05:46:05.139Z,-2.60
2019-01-25T05:48:35.330Z,-2.50
2019-01-25T05:51:05.885Z,-2.50
2019-01-25T05:53:36.155Z,-2.50
2019-01-25T05:56:07.091Z,-2.60
2019-01-25T05:58:37.345Z,-2.50
2019-01-25T06:01:07.352Z,-2.60
2019-01-25T06:03:37.302Z,-2.60
2019-01-25T06:06:07.952Z,-2.50
2019-01-25T06:08:43.901Z,-2.50
2019-01-25T06:11:11.399Z,-2.50
2019-01-25T06:13:42.090Z,-2.50
2019-01-25T06:16:12.590Z,-2.40
2019-01-25T06:18:43.222Z,-2.50
2019-01-25T06:21:14.438Z,-2.50
2019-01-25T06:23:45.429Z,-2.40
2019-01-25T06:26:16.293Z,-2.40
2019-01-25T06:28:49.734Z,-2.50
2019-01-25T06:31:20.081Z,-2.50
2019-01-25T06:33:50.353Z,-2.50
2019-01-25T06:36:20.375Z,-2.50
2019-01-25T06:38:50.356Z,-2.50
2019-01-25T06:41:20.406Z,-2.60
2019-01-25T06:43:51.105Z,-2.60
2019-01-25T06:46:21.891Z,-2.60
2019-01-25T06:48:52.459Z,-2.60
2019-01-25T06:51:22.604Z,-2.60
2019-01-25T06:53:52.784Z,-2.60
2019-01-25T06:56:23.127Z,-2.60
2019-01-25T06:58:55.209Z,-2.60
2019-01-25T07:01:30.059Z,-2.60
2019-01-25T07:04:00.166Z,-2.60
2019-01-25T07:06:30.519Z,-2.60
2019-01-25T07:09:01.224Z,-2.60
2019-01-25T07:11:31.879Z,-2.60
2019-01-25T07:14:02.490Z,-2.50
2019-01-25T07:16:33.162Z,-2.60
2019-01-25T07:19:03.869Z,-2.60
2019-01-25T07:21:34.270Z,-2.60
2019-01-25T07:24:06.427Z,-2.60
2019-01-25T07:26:37.259Z,-2.70
2019-01-25T07:29:07.803Z,-2.70
2019-01-25T07:31:38.545Z,-2.70
2019-01-25T07:34:09.342Z,-2.60
2019-01-25T07:36:39.569Z,-2.60
2019-01-25T07:39:12.908Z,-2.50
2019-01-25T07:41:43.366Z,-2.50
2019-01-25T07:44:13.547Z,-2.50
2019-01-25T07:46:43.788Z,-2.60
2019-01-25T07:49:13.844Z,-2.50
2019-01-25T07:51:44.048Z,-2.50
2019-01-25T07:54:14.105Z,-2.60
2019-01-25T07:56:44.198Z,-2.60
2019-01-25T07:59:14.588Z,-2.60
2019-01-25T08:01:44.760Z,-2.60
2019-01-25T08:04:14.850Z,-2.60
2019-01-25T08:06:45.459Z,-2.60
2019-01-25T08:09:16.070Z,-2.60
2019-01-25T08:11:46.310Z,-2.50
2019-01-25T08:14:16.740Z,-2.50
2019-01-25T08:16:47.158Z,-2.50
2019-01-25T08:19:17.541Z,-2.50
2019-01-25T08:21:48.666Z,-2.50
2019-01-25T08:24:19.268Z,-2.40
2019-01-25T08:26:50.155Z,-2.40
2019-01-25T08:29:27.670Z,-2.30
2019-01-25T08:31:53.020Z,-2.30
2019-01-25T08:34:24.298Z,-2.40
2019-01-25T08:36:54.946Z,-2.30
2019-01-25T08:39:25.740Z,-2.40
2019-01-25T08:41:56.266Z,-2.40
2019-01-25T08:44:26.603Z,-2.40
2019-01-25T08:46:57.344Z,-2.40
2019-01-25T08:49:27.689Z,-2.40
2019-01-25T08:51:57.869Z,-2.40
2019-01-25T08:54:28.066Z,-2.40
2019-01-25T08:56:58.283Z,-2.40
2019-01-25T08:59:28.428Z,-2.30
2019-01-25T09:01:58.712Z,-2.30
2019-01-25T09:04:29.058Z,-2.20
2019-01-25T09:06:59.257Z,-2.20
2019-01-25T09:09:29.798Z,-2.20
2019-01-25T09:11:59.918Z,-2.30
2019-01-25T09:14:30.199Z,-2.30
2019-01-25T09:17:00.410Z,-2.30
2019-01-25T09:19:30.885Z,-2.10
2019-01-25T09:22:01.113Z,-2.10
2019-01-25T09:24:31.199Z,-2.10
2019-01-25T09:27:01.403Z,-2.10
2019-01-25T09:29:31.885Z,-2.10
2019-01-25T09:32:02.064Z,-2.20
2019-01-25T09:34:32.432Z,-2.30
2019-01-25T09:37:02.526Z,-2.20
2019-01-25T09:39:32.762Z,-2.20
2019-01-25T09:42:03.115Z,-2.10
2019-01-25T09:44:33.102Z,-2.20
2019-01-25T09:47:03.510Z,-2.10
2019-01-25T09:49:33.787Z,-2.00
2019-01-25T09:52:04.284Z,-1.90
2019-01-25T09:54:34.783Z,-1.90
2019-01-25T09:57:05.132Z,-1.80
2019-01-25T09:59:35.450Z,-1.80
2019-01-25T10:02:05.884Z,-1.70
2019-01-25T10:04:36.528Z,-1.60
2019-01-25T10:07:06.801Z,-1.60
2019-01-25T10:09:36.901Z,-1.50
2019-01-25T10:12:07.131Z,-1.50
2019-01-25T10:14:37.212Z,-1.60
2019-01-25T10:17:07.544Z,-1.50
2019-01-25T10:19:37.998Z,-1.50
2019-01-25T10:22:08.818Z,-1.50
2019-01-25T10:24:38.871Z,-1.60
2019-01-25T10:27:09.106Z,-1.60
2019-01-25T10:29:39.365Z,-1.50
2019-01-25T10:32:10.626Z,-1.40
2019-01-25T10:34:40.649Z,-1.40
2019-01-25T10:37:11.042Z,-1.30
2019-01-25T10:39:41.169Z,-1.40
2019-01-25T10:42:11.445Z,-1.40
2019-01-25T10:44:41.789Z,-1.50
2019-01-25T10:47:12.091Z,-1.30
2019-01-25T10:49:42.710Z,-1.30
2019-01-25T10:52:12.661Z,-1.30
2019-01-25T10:54:42.812Z,-1.30
2019-01-25T10:57:13.140Z,-1.40
2019-01-25T10:59:43.369Z,-1.40
2019-01-25T11:02:14.227Z,-1.30
2019-01-25T11:04:44.816Z,-1.20
2019-01-25T11:07:15.362Z,-1.20
2019-01-25T11:09:45.856Z,-1.30
2019-01-25T11:12:16.330Z,-1.30
2019-01-25T11:14:46.605Z,-1.40
2019-01-25T11:17:16.972Z,-1.50
2019-01-25T11:19:47.310Z,-1.40
2019-01-25T11:22:17.972Z,-1.40
2019-01-25T11:24:48.814Z,-1.40
2019-01-25T11:27:19.335Z,-1.40
2019-01-25T11:29:49.392Z,-1.30
2019-01-25T11:32:20.684Z,-1.10
2019-01-25T11:34:51.049Z,-1.00
2019-01-25T11:37:22.035Z,-1.20
2019-01-25T11:39:52.139Z,-1.10
2019-01-25T11:42:22.501Z,-1.20
2019-01-25T11:44:53.030Z,-1.00
2019-01-25T11:47:23.306Z,-1.00
2019-01-25T11:49:53.413Z,-1.00
2019-01-25T11:52:25.093Z,-1.20
2019-01-25T11:54:55.644Z,-1.30
2019-01-25T11:57:26.011Z,-1.20
2019-01-25T11:59:56.375Z,-1.20
2019-01-25T12:02:27.610Z,-1.10
2019-01-25T12:04:57.682Z,-1.00
2019-01-25T12:07:27.973Z,-0.90
2019-01-25T12:09:58.284Z,-0.90
2019-01-25T12:12:28.494Z,-1.10
2019-01-25T12:14:58.683Z,-1.00
2019-01-25T12:17:29.673Z,-1.10
2019-01-25T12:20:00.004Z,-1.10
2019-01-25T12:22:30.256Z,-1.10
2019-01-25T12:25:00.331Z,-1.10
2019-01-25T12:27:30.536Z,-1.10
2019-01-25T12:30:00.844Z,-1.10
2019-01-25T12:32:30.955Z,-1.00
2019-01-25T12:35:01.788Z,-1.10
2019-01-25T12:37:32.048Z,-1.10
2019-01-25T12:40:02.291Z,-1.20
2019-01-25T12:42:32.328Z,-1.30
2019-01-25T12:45:02.812Z,-1.30
2019-01-25T12:47:32.854Z,-1.20
2019-01-25T12:50:03.178Z,-1.20
2019-01-25T12:52:33.148Z,-1.10
2019-01-25T12:55:03.754Z,-1.20
2019-01-25T12:57:34.146Z,-1.20
2019-01-25T13:00:07.360Z,-1.30
2019-01-25T13:02:37.687Z,-1.20
2019-01-25T13:05:11.012Z,-1.10
2019-01-25T13:07:41.668Z,-1.30
2019-01-25T13:10:15.570Z,-1.30
2019-01-25T13:12:45.840Z,-1.20
2019-01-25T13:15:16.463Z,-1.20
2019-01-25T13:17:46.701Z,-1.10
2019-01-25T13:20:19.962Z,-1.10
2019-01-25T13:22:49.996Z,-1.00
2019-01-25T13:25:20.802Z,-1.20
2019-01-25T13:27:51.112Z,-1.10
2019-01-25T13:30:29.553Z,-1.20
2019-01-25T13:32:59.909Z,-1.20
2019-01-25T13:35:30.447Z,-1.30
2019-01-25T13:38:00.744Z,-1.30
2019-01-25T13:40:31.174Z,-1.20
2019-01-25T13:43:01.410Z,-1.20
2019-01-25T13:45:32.301Z,-1.20
2019-01-25T13:48:02.682Z,-1.20
2019-01-25T13:50:34.315Z,-1.20
2019-01-25T13:53:05.327Z,-1.20
2019-01-25T13:55:35.912Z,-1.10
2019-01-25T13:58:07.123Z,-1.10
2019-01-25T14:00:38.278Z,-1.10
2019-01-25T14:03:08.296Z,-1.10
2019-01-25T14:05:38.475Z,-1.20
2019-01-25T14:08:09.053Z,-1.10
2019-01-25T14:10:40.209Z,-1.10
2019-01-25T14:13:10.691Z,-1.20
2019-01-25T14:15:41.068Z,-1.20
2019-01-25T14:18:11.485Z,-1.20
2019-01-25T14:20:42.032Z,-1.30
2019-01-25T14:23:12.749Z,-1.40
2019-01-25T14:25:42.935Z,-1.30
2019-01-25T14:28:13.626Z,-1.30
2019-01-25T14:30:44.647Z,-1.30
2019-01-25T14:33:14.832Z,-1.30
2019-01-25T14:35:45.662Z,-1.40
2019-01-25T14:38:16.004Z,-1.40
2019-01-25T14:40:46.555Z,-1.30
2019-01-25T14:43:17.493Z,-1.30
2019-01-25T14:45:48.469Z,-1.30
2019-01-25T14:48:18.743Z,-1.30
2019-01-25T14:50:49.320Z,-1.30
2019-01-25T14:53:20.097Z,-1.30
2019-01-25T14:55:50.311Z,-1.30
2019-01-25T14:58:20.709Z,-1.30
2019-01-25T15:00:51.155Z,-1.30
2019-01-25T15:03:21.482Z,-1.40
2019-01-25T15:05:52.473Z,-1.40
2019-01-25T15:08:24.029Z,-1.40
2019-01-25T15:10:54.904Z,-1.50
2019-01-25T15:13:25.324Z,-1.50
2019-01-25T15:15:55.687Z,-1.50
2019-01-25T15:18:25.797Z,-1.50
2019-01-25T15:20:56.907Z,-1.50
2019-01-25T15:23:27.115Z,-1.50
2019-01-25T15:25:58.541Z,-1.50
2019-01-25T15:28:29.199Z,-1.50
2019-01-25T15:30:59.385Z,-1.50
2019-01-25T15:33:29.913Z,-1.50
2019-01-25T15:36:00.304Z,-1.50
2019-01-25T15:38:31.051Z,-1.60
2019-01-25T15:41:01.576Z,-1.50
2019-01-25T15:43:32.187Z,-1.60
2019-01-25T15:46:02.650Z,-1.70
2019-01-25T15:48:33.212Z,-1.70
2019-01-25T15:51:03.822Z,-1.60
2019-01-25T15:53:34.424Z,-1.60
2019-01-25T15:56:05.057Z,-1.60
2019-01-25T15:58:35.397Z,-1.60
2019-01-25T16:01:05.354Z,-1.70
2019-01-25T16:03:35.521Z,-1.80
2019-01-25T16:06:05.717Z,-1.70
2019-01-25T16:08:35.678Z,-1.60
2019-01-25T16:11:05.998Z,-1.60
2019-01-25T16:13:36.056Z,-1.70
2019-01-25T16:16:06.414Z,-1.70
2019-01-25T16:18:36.500Z,-1.60
2019-01-25T16:21:08.027Z,-1.60
2019-01-25T16:23:38.489Z,-1.60
2019-01-25T16:26:08.630Z,-1.60
2019-01-25T16:28:38.912Z,-1.70
2019-01-25T16:31:09.276Z,-1.70
2019-01-25T16:33:39.448Z,-1.70
2019-01-25T16:36:09.532Z,-1.60
2019-01-25T16:38:39.917Z,-1.70
2019-01-25T16:41:10.254Z,-1.60
2019-01-25T16:43:40.627Z,-1.60
2019-01-25T16:46:11.220Z,-1.50
2019-01-25T16:48:41.510Z,-1.50
2019-01-25T16:51:12.080Z,-1.60
2019-01-25T16:53:42.590Z,-1.60
2019-01-25T16:56:12.837Z,-1.70
2019-01-25T16:58:42.796Z,-1.70
2019-01-25T17:01:13.214Z,-1.60
2019-01-25T17:03:43.727Z,-1.60
2019-01-25T17:06:13.780Z,-1.60
2019-01-25T17:08:43.761Z,-1.60
2019-01-25T17:11:13.700Z,-1.60
2019-01-25T17:13:43.659Z,-1.70
2019-01-25T17:16:14.226Z,-1.70
2019-01-25T17:18:44.745Z,-1.70
2019-01-25T17:21:15.396Z,-1.60
2019-01-25T17:23:45.406Z,-1.70
2019-01-25T17:26:15.560Z,-1.70
2019-01-25T17:28:45.785Z,-1.70
2019-01-25T17:31:16.325Z,-1.70
2019-01-25T17:33:46.582Z,-1.70
2019-01-25T17:36:17.199Z,-1.80
2019-01-25T17:38:47.386Z,-1.70
2019-01-25T17:41:17.406Z,-1.80
2019-01-25T17:43:47.568Z,-1.70
2019-01-25T17:46:18.211Z,-1.70
2019-01-25T17:48:49.675Z,-1.80
2019-01-25T17:51:19.962Z,-1.90
2019-01-25T17:53:50.045Z,-1.90
2019-01-25T17:56:20.382Z,-1.90
2019-01-25T17:58:50.578Z,-2.00
2019-01-25T18:01:20.611Z,-2.00
2019-01-25T18:03:50.827Z,-2.00
2019-01-25T18:06:21.141Z,-2.00
2019-01-25T18:08:51.168Z,-2.00
2019-01-25T18:11:21.703Z,-2.00
2019-01-25T18:13:51.672Z,-2.00
2019-01-25T18:16:22.046Z,-2.00
2019-01-25T18:18:52.543Z,-2.10
2019-01-25T18:21:22.582Z,-2.10
2019-01-25T18:23:52.867Z,-2.00
2019-01-25T18:26:22.960Z,-2.00
2019-01-25T18:28:54.535Z,-2.00
2019-01-25T18:31:26.750Z,-2.00
2019-01-25T20:00:30.824Z,-2.30
2019-01-25T20:03:01.196Z,-2.30
2019-01-25T20:05:32.588Z,-2.30
2019-01-25T20:08:05.622Z,-2.30
2019-01-25T20:10:36.240Z,-2.20
2019-01-25T20:13:07.631Z,-2.20
2019-01-25T20:15:38.430Z,-2.20
2019-01-25T20:18:08.959Z,-2.20
2019-01-25T20:20:40.986Z,-2.20
2019-01-25T20:23:11.214Z,-2.20
2019-01-25T20:25:41.824Z,-2.20
2019-01-25T20:28:12.241Z,-2.30
2019-01-25T20:30:49.390Z,-2.30
2019-01-25T20:33:15.034Z,-2.40
2019-01-25T20:35:45.425Z,-2.30
2019-01-25T20:38:15.832Z,-2.40
2019-01-25T20:40:46.215Z,-2.40
2019-01-25T20:43:16.665Z,-2.40
2019-01-25T20:45:46.877Z,-2.30
2019-01-25T20:48:17.124Z,-2.20
2019-01-25T20:50:47.350Z,-2.20
2019-01-25T20:53:17.627Z,-2.30
2019-01-25T20:55:47.885Z,-2.30
2019-01-25T20:58:18.061Z,-2.30
2019-01-25T21:00:48.750Z,-2.40
2019-01-25T21:03:18.807Z,-2.30
2019-01-25T21:05:49.101Z,-2.30
2019-01-25T21:08:19.599Z,-2.30
2019-01-25T21:10:49.745Z,-2.20
2019-01-25T21:13:19.828Z,-2.20
2019-01-25T21:15:50.073Z,-2.10
2019-01-25T21:18:20.336Z,-2.10
2019-01-25T21:20:51.256Z,-2.10
2019-01-25T21:23:22.113Z,-2.20
2019-01-25T21:25:52.279Z,-2.30
2019-01-25T21:28:22.440Z,-2.30
2019-01-25T21:30:52.538Z,-2.30
2019-01-25T21:33:22.639Z,-2.30
2019-01-25T21:35:53.068Z,-2.20
2019-01-25T21:38:22.930Z,-2.20
2019-01-25T21:40:53.665Z,-2.20
2019-01-25T21:43:23.675Z,-2.20
2019-01-25T21:45:53.853Z,-2.10
2019-01-25T21:48:23.951Z,-2.10
2019-01-25T21:50:54.311Z,-2.10
2019-01-25T21:53:24.434Z,-2.10
2019-01-25T21:55:55.100Z,-2.10
2019-01-25T21:58:25.329Z,-2.00
2019-01-25T22:00:55.634Z,-2.00
2019-01-25T22:03:25.779Z,-1.90
2019-01-25T22:05:56.074Z,-2.00
2019-01-25T22:08:26.188Z,-2.00
2019-01-25T22:10:56.181Z,-1.90
2019-01-25T22:13:26.816Z,-1.80
2019-01-25T22:15:57.189Z,-1.90
2019-01-25T22:18:27.261Z,-1.90
2019-01-25T22:20:57.368Z,-1.90
2019-01-25T22:23:27.482Z,-2.00
2019-01-25T22:25:57.558Z,-1.90
2019-01-25T22:28:35.982Z,-1.90
2019-01-25T22:31:04.281Z,-1.90
2019-01-25T22:33:34.405Z,-2.00
2019-01-25T22:36:04.707Z,-1.90
2019-01-25T22:38:35.014Z,-1.90
2019-01-25T22:41:05.145Z,-1.90
2019-01-25T22:43:35.166Z,-1.90
2019-01-25T22:46:05.467Z,-1.90
2019-01-25T22:48:35.609Z,-1.80
2019-01-25T22:51:05.928Z,-1.80
2019-01-25T22:53:36.163Z,-1.70
2019-01-25T22:56:07.134Z,-1.80
2019-01-25T22:58:38.066Z,-1.80
2019-01-25T23:01:14.569Z,-1.80
2019-01-25T23:03:57.450Z,-1.80
2019-01-25T23:06:39.364Z,-1.80
2019-01-25T23:09:15.766Z,-1.80
2019-01-25T23:11:46.254Z,-1.80
2019-01-25T23:14:16.903Z,-1.80
2019-01-25T23:16:48.295Z,-1.80
2019-01-25T23:19:18.835Z,-1.70
2019-01-25T23:21:50.280Z,-1.60
2019-01-25T23:24:20.665Z,-1.70
2019-01-25T23:26:51.206Z,-1.70
2019-01-25T23:29:21.598Z,-1.60
2019-01-25T23:31:52.196Z,-1.60
2019-01-25T23:34:22.586Z,-1.50
2019-01-25T23:36:52.662Z,-1.50
2019-01-25T23:39:22.719Z,-1.50
2019-01-25T23:41:52.831Z,-1.50
2019-01-25T23:44:23.235Z,-1.50
2019-01-25T23:46:53.906Z,-1.60
2019-01-25T23:49:24.636Z,-1.50
2019-01-25T23:51:54.930Z,-1.40
2019-01-25T23:54:25.012Z,-1.50
2019-01-25T23:56:55.199Z,-1.50
2019-01-25T23:59:25.736Z,-1.50
